sensor_id;sensor_type;location;lat;lon;timestamp;pressure;altitude;pressure_sealevel;temperature;humidity
19259;BME280;9763;48.780;9.212;2023-11-21T00:00:23;97814.78;;;11.93;83.90
19259;BME280;9763;48.780;9.212;2023-11-21T00:03:47;97807.88;;;11.92;84.00
19259;BME280;9763;48.780;9.212;2023-11-21T00:07:12;97805.38;;;11.90;83.71
19259;BME280;9763;48.780;9.212;2023-11-21T00:10:39;97808.84;;;11.91;84.08
19259;BME280;9763;48.780;9.212;2023-11-21T00:14:03;97803.72;;;11.89;83.46
19259;BME280;9763;48.780;9.212;2023-11-21T00:17:28;97798.63;;;11.88;83.88
19259;BME280;9763;48.780;9.212;2023-11-21T00:20:52;97793.63;;;11.85;83.45
19259;BME280;9763;48.780;9.212;2023-11-21T00:24:15;97784.00;;;11.85;83.20
19259;BME280;9763;48.780;9.212;2023-11-21T00:27:42;97788.03;;;11.89;83.80
19259;BME280;9763;48.780;9.212;2023-11-21T00:31:06;97783.63;;;11.90;83.42
19259;BME280;9763;48.780;9.212;2023-11-21T00:34:31;97788.63;;;11.93;83.78
19259;BME280;9763;48.780;9.212;2023-11-21T00:37:55;97789.91;;;11.99;83.52
19259;BME280;9763;48.780;9.212;2023-11-21T00:41:21;97785.25;;;12.02;84.37
19259;BME280;9763;48.780;9.212;2023-11-21T00:44:46;97793.81;;;12.04;84.05
19259;BME280;9763;48.780;9.212;2023-11-21T00:48:10;97789.31;;;12.06;83.81
19259;BME280;9763;48.780;9.212;2023-11-21T00:51:36;97784.19;;;12.05;84.27
19259;BME280;9763;48.780;9.212;2023-11-21T00:55:00;97786.81;;;12.05;84.16
19259;BME280;9763;48.780;9.212;2023-11-21T00:58:26;97785.50;;;11.99;83.54
19259;BME280;9763;48.780;9.212;2023-11-21T01:01:51;97785.75;;;11.96;83.19
19259;BME280;9763;48.780;9.212;2023-11-21T01:05:16;97789.59;;;11.92;83.53
19259;BME280;9763;48.780;9.212;2023-11-21T01:08:41;97779.59;;;11.86;83.80
19259;BME280;9763;48.780;9.212;2023-11-21T01:12:05;97786.97;;;11.92;84.37
19259;BME280;9763;48.780;9.212;2023-11-21T01:15:29;97788.75;;;11.92;84.24
19259;BME280;9763;48.780;9.212;2023-11-21T01:18:55;97796.72;;;11.90;83.89
19259;BME280;9763;48.780;9.212;2023-11-21T01:22:19;97791.13;;;11.83;83.79
19259;BME280;9763;48.780;9.212;2023-11-21T01:25:48;97788.66;;;11.82;84.32
19259;BME280;9763;48.780;9.212;2023-11-21T01:29:15;97787.00;;;11.81;84.20
19259;BME280;9763;48.780;9.212;2023-11-21T01:32:40;97791.97;;;11.84;84.59
19259;BME280;9763;48.780;9.212;2023-11-21T01:36:07;97790.19;;;11.84;84.67
19259;BME280;9763;48.780;9.212;2023-11-21T01:39:31;97795.06;;;11.89;84.00
19259;BME280;9763;48.780;9.212;2023-11-21T01:42:55;97788.88;;;11.90;83.97
19259;BME280;9763;48.780;9.212;2023-11-21T01:46:20;97784.47;;;11.90;84.35
19259;BME280;9763;48.780;9.212;2023-11-21T01:49:46;97781.16;;;11.88;84.59
19259;BME280;9763;48.780;9.212;2023-11-21T01:53:13;97782.81;;;11.89;84.76
19259;BME280;9763;48.780;9.212;2023-11-21T01:56:37;97787.78;;;11.93;84.69
19259;BME280;9763;48.780;9.212;2023-11-21T02:00:03;97779.94;;;11.93;84.01
19259;BME280;9763;48.780;9.212;2023-11-21T02:03:37;97787.78;;;11.93;84.27
19259;BME280;9763;48.780;9.212;2023-11-21T02:07:03;97788.50;;;11.95;84.43
19259;BME280;9763;48.780;9.212;2023-11-21T02:10:30;97792.06;;;11.94;84.44
19259;BME280;9763;48.780;9.212;2023-11-21T02:13:54;97783.53;;;11.92;84.73
19259;BME280;9763;48.780;9.212;2023-11-21T02:17:18;97788.75;;;11.92;84.60
19259;BME280;9763;48.780;9.212;2023-11-21T02:20:43;97775.69;;;11.92;84.27
19259;BME280;9763;48.780;9.212;2023-11-21T02:24:08;97776.88;;;11.87;83.83
19259;BME280;9763;48.780;9.212;2023-11-21T02:27:32;97772.03;;;11.83;84.13
19259;BME280;9763;48.780;9.212;2023-11-21T02:30:56;97772.38;;;11.78;83.83
19259;BME280;9763;48.780;9.212;2023-11-21T02:34:23;97770.47;;;11.80;84.42
19259;BME280;9763;48.780;9.212;2023-11-21T02:37:48;97760.97;;;11.79;84.15
19259;BME280;9763;48.780;9.212;2023-11-21T02:41:13;97770.91;;;11.85;83.81
19259;BME280;9763;48.780;9.212;2023-11-21T02:44:36;97764.88;;;11.85;83.84
19259;BME280;9763;48.780;9.212;2023-11-21T02:48:00;97770.91;;;11.85;84.08
19259;BME280;9763;48.780;9.212;2023-11-21T02:51:25;97766.53;;;11.86;84.42
19259;BME280;9763;48.780;9.212;2023-11-21T02:54:49;97755.63;;;11.81;83.48
19259;BME280;9763;48.780;9.212;2023-11-21T02:58:14;97757.13;;;11.72;83.33
19259;BME280;9763;48.780;9.212;2023-11-21T03:01:40;97753.38;;;11.65;83.80
19259;BME280;9763;48.780;9.212;2023-11-21T03:05:04;97762.03;;;11.66;83.99
19259;BME280;9763;48.780;9.212;2023-11-21T03:08:29;97766.56;;;11.64;83.88
19259;BME280;9763;48.780;9.212;2023-11-21T03:11:52;97763.34;;;11.60;83.72
19259;BME280;9763;48.780;9.212;2023-11-21T03:15:18;97765.41;;;11.57;84.04
19259;BME280;9763;48.780;9.212;2023-11-21T03:18:42;97766.09;;;11.59;84.28
19259;BME280;9763;48.780;9.212;2023-11-21T03:22:07;97768.56;;;11.60;84.03
19259;BME280;9763;48.780;9.212;2023-11-21T03:25:32;97774.88;;;11.69;84.47
19259;BME280;9763;48.780;9.212;2023-11-21T03:28:56;97775.44;;;11.72;83.82
19259;BME280;9763;48.780;9.212;2023-11-21T03:32:21;97776.28;;;11.73;84.42
19259;BME280;9763;48.780;9.212;2023-11-21T03:35:46;97781.38;;;11.74;83.81
19259;BME280;9763;48.780;9.212;2023-11-21T03:39:10;97779.38;;;11.78;84.29
19259;BME280;9763;48.780;9.212;2023-11-21T03:42:33;97777.38;;;11.81;84.28
19259;BME280;9763;48.780;9.212;2023-11-21T03:45:57;97774.63;;;11.83;84.05
19259;BME280;9763;48.780;9.212;2023-11-21T03:49:22;97752.19;;;11.69;84.09
19259;BME280;9763;48.780;9.212;2023-11-21T03:52:46;97776.53;;;11.81;83.93
19259;BME280;9763;48.780;9.212;2023-11-21T03:56:10;97782.84;;;11.78;84.15
19259;BME280;9763;48.780;9.212;2023-11-21T03:59:34;97787.56;;;11.73;83.41
19259;BME280;9763;48.780;9.212;2023-11-21T04:02:58;97782.34;;;11.73;84.21
19259;BME280;9763;48.780;9.212;2023-11-21T04:06:23;97788.31;;;11.75;84.35
19259;BME280;9763;48.780;9.212;2023-11-21T04:09:48;97788.91;;;11.79;83.86
19259;BME280;9763;48.780;9.212;2023-11-21T04:13:12;97786.88;;;11.82;83.90
19259;BME280;9763;48.780;9.212;2023-11-21T04:16:36;97788.78;;;11.80;83.84
19259;BME280;9763;48.780;9.212;2023-11-21T04:20:00;97788.31;;;11.75;83.75
19259;BME280;9763;48.780;9.212;2023-11-21T04:23:28;97793.75;;;11.72;83.98
19259;BME280;9763;48.780;9.212;2023-11-21T04:26:53;97791.28;;;11.71;83.36
19259;BME280;9763;48.780;9.212;2023-11-21T04:30:17;97791.28;;;11.71;83.99
19259;BME280;9763;48.780;9.212;2023-11-21T04:33:41;97790.44;;;11.70;83.85
19259;BME280;9763;48.780;9.212;2023-11-21T04:37:04;97793.16;;;11.69;83.75
19259;BME280;9763;48.780;9.212;2023-11-21T04:40:30;97799.59;;;11.65;84.00
19259;BME280;9763;48.780;9.212;2023-11-21T04:43:55;97794.03;;;11.58;83.83
19259;BME280;9763;48.780;9.212;2023-11-21T04:47:19;97804.22;;;11.50;83.22
19259;BME280;9763;48.780;9.212;2023-11-21T04:50:43;97802.13;;;11.44;83.71
19259;BME280;9763;48.780;9.212;2023-11-21T04:54:06;97804.97;;;11.41;83.78
19259;BME280;9763;48.780;9.212;2023-11-21T04:57:32;97801.84;;;11.36;83.04
19259;BME280;9763;48.780;9.212;2023-11-21T05:00:57;97804.97;;;11.30;82.97
19259;BME280;9763;48.780;9.212;2023-11-21T05:04:21;97788.22;;;11.10;82.96
19259;BME280;9763;48.780;9.212;2023-11-21T05:07:45;97816.84;;;11.23;83.29
19259;BME280;9763;48.780;9.212;2023-11-21T05:11:09;97808.28;;;11.21;83.34
19259;BME280;9763;48.780;9.212;2023-11-21T05:14:34;97813.25;;;11.24;83.90
19259;BME280;9763;48.780;9.212;2023-11-21T05:17:58;97819.09;;;11.27;84.26
19259;BME280;9763;48.780;9.212;2023-11-21T05:21:22;97827.41;;;11.32;83.56
19259;BME280;9763;48.780;9.212;2023-11-21T05:24:47;97822.75;;;11.36;84.33
19259;BME280;9763;48.780;9.212;2023-11-21T05:28:12;97825.84;;;11.41;83.52
19259;BME280;9763;48.780;9.212;2023-11-21T05:31:37;97832.63;;;11.43;84.18
19259;BME280;9763;48.780;9.212;2023-11-21T05:35:01;97835.47;;;11.40;83.90
19259;BME280;9763;48.780;9.212;2023-11-21T05:38:25;97837.88;;;11.43;84.01
19259;BME280;9763;48.780;9.212;2023-11-21T05:41:48;97845.47;;;11.46;84.30
19259;BME280;9763;48.780;9.212;2023-11-21T05:45:12;97845.31;;;11.48;84.14
19259;BME280;9763;48.780;9.212;2023-11-21T05:48:37;97841.06;;;11.47;83.89
19259;BME280;9763;48.780;9.212;2023-11-21T05:52:00;97851.75;;;11.44;84.16
19259;BME280;9763;48.780;9.212;2023-11-21T05:55:25;97845.81;;;11.42;84.28
19259;BME280;9763;48.780;9.212;2023-11-21T05:58:48;97854.72;;;11.39;84.37
19259;BME280;9763;48.780;9.212;2023-11-21T06:02:13;97843.66;;;11.36;83.90
19259;BME280;9763;48.780;9.212;2023-11-21T06:05:38;97852.09;;;11.39;84.07
19259;BME280;9763;48.780;9.212;2023-11-21T06:09:02;97852.09;;;11.39;83.71
19259;BME280;9763;48.780;9.212;2023-11-21T06:12:28;97856.38;;;11.40;84.09
19259;BME280;9763;48.780;9.212;2023-11-21T06:15:52;97866.72;;;11.42;83.96
19259;BME280;9763;48.780;9.212;2023-11-21T06:19:17;97872.88;;;11.41;83.87
19259;BME280;9763;48.780;9.212;2023-11-21T06:22:43;97880.00;;;11.39;83.82
19259;BME280;9763;48.780;9.212;2023-11-21T06:26:06;97871.22;;;11.40;84.01
19259;BME280;9763;48.780;9.212;2023-11-21T06:29:31;97885.84;;;11.42;84.80
19259;BME280;9763;48.780;9.212;2023-11-21T06:32:55;97882.75;;;11.48;84.44
19259;BME280;9763;48.780;9.212;2023-11-21T06:36:19;97883.34;;;11.52;84.66
19259;BME280;9763;48.780;9.212;2023-11-21T06:39:44;97889.19;;;11.55;84.54
19259;BME280;9763;48.780;9.212;2023-11-21T06:43:08;97893.19;;;11.60;84.56
19259;BME280;9763;48.780;9.212;2023-11-21T06:46:32;97895.81;;;11.60;84.36
19259;BME280;9763;48.780;9.212;2023-11-21T06:49:56;97894.75;;;11.62;84.23
19259;BME280;9763;48.780;9.212;2023-11-21T06:53:20;97900.91;;;11.61;84.14
19259;BME280;9763;48.780;9.212;2023-11-21T06:56:46;97908.66;;;11.63;84.38
19259;BME280;9763;48.780;9.212;2023-11-21T07:00:11;97909.38;;;11.65;84.29
19259;BME280;9763;48.780;9.212;2023-11-21T07:03:35;97909.97;;;11.68;84.24
19259;BME280;9763;48.780;9.212;2023-11-21T07:07:00;97911.53;;;11.71;84.54
19259;BME280;9763;48.780;9.212;2023-11-21T07:10:24;97918.16;;;11.75;84.26
19259;BME280;9763;48.780;9.212;2023-11-21T07:13:50;97920.56;;;11.78;84.30
19259;BME280;9763;48.780;9.212;2023-11-21T07:17:14;97926.97;;;11.85;84.44
19259;BME280;9763;48.780;9.212;2023-11-21T07:20:39;97926.50;;;11.91;84.67
19259;BME280;9763;48.780;9.212;2023-11-21T07:24:05;97934.81;;;11.96;84.90
19259;BME280;9763;48.780;9.212;2023-11-21T07:27:29;97941.97;;;12.05;84.79
19259;BME280;9763;48.780;9.212;2023-11-21T07:30:54;97952.75;;;12.12;84.87
19259;BME280;9763;48.780;9.212;2023-11-21T07:34:18;97945.28;;;12.18;84.86
19259;BME280;9763;48.780;9.212;2023-11-21T07:37:42;97944.06;;;12.22;84.15
19259;BME280;9763;48.780;9.212;2023-11-21T07:41:23;97950.72;;;12.26;84.58
19259;BME280;9763;48.780;9.212;2023-11-21T07:44:53;97950.38;;;12.31;84.15
19259;BME280;9763;48.780;9.212;2023-11-21T07:48:18;97956.44;;;12.32;83.66
19259;BME280;9763;48.780;9.212;2023-11-21T07:51:42;97956.69;;;12.29;84.20
19259;BME280;9763;48.780;9.212;2023-11-21T07:55:06;97957.50;;;12.29;84.00
19259;BME280;9763;48.780;9.212;2023-11-21T07:58:31;97958.91;;;12.33;83.83
19259;BME280;9763;48.780;9.212;2023-11-21T08:01:55;97960.47;;;12.36;84.44
19259;BME280;9763;48.780;9.212;2023-11-21T08:05:20;97957.13;;;12.34;84.58
19259;BME280;9763;48.780;9.212;2023-11-21T08:08:53;97973.31;;;12.39;84.15
19259;BME280;9763;48.780;9.212;2023-11-21T08:12:17;97962.97;;;12.37;84.68
19259;BME280;9763;48.780;9.212;2023-11-21T08:15:42;97979.00;;;12.44;84.28
19259;BME280;9763;48.780;9.212;2023-11-21T08:19:09;97979.81;;;12.44;84.05
19259;BME280;9763;48.780;9.212;2023-11-21T08:22:34;97976.38;;;12.44;84.52
19259;BME280;9763;48.780;9.212;2023-11-21T08:25:58;97980.53;;;12.46;85.24
19259;BME280;9763;48.780;9.212;2023-11-21T08:29:24;97971.72;;;12.47;84.83
19259;BME280;9763;48.780;9.212;2023-11-21T08:32:47;97968.66;;;12.53;84.68
19259;BME280;9763;48.780;9.212;2023-11-21T08:36:11;97987.28;;;12.60;84.78
19259;BME280;9763;48.780;9.212;2023-11-21T08:39:37;97988.97;;;12.61;84.65
19259;BME280;9763;48.780;9.212;2023-11-21T08:43:00;97988.59;;;12.66;83.92
19259;BME280;9763;48.780;9.212;2023-11-21T08:46:26;97990.72;;;12.72;84.45
19259;BME280;9763;48.780;9.212;2023-11-21T08:49:50;97988.34;;;12.80;84.21
19259;BME280;9763;48.780;9.212;2023-11-21T08:53:15;97993.38;;;12.92;84.89
19259;BME280;9763;48.780;9.212;2023-11-21T08:56:40;97994.44;;;13.01;85.19
19259;BME280;9763;48.780;9.212;2023-11-21T09:00:07;98009.06;;;13.15;85.18
19259;BME280;9763;48.780;9.212;2023-11-21T09:03:34;98009.72;;;13.28;84.71
19259;BME280;9763;48.780;9.212;2023-11-21T09:06:57;98008.72;;;13.40;84.93
19259;BME280;9763;48.780;9.212;2023-11-21T09:10:22;98009.72;;;13.49;84.56
19259;BME280;9763;48.780;9.212;2023-11-21T09:13:49;98005.63;;;13.56;85.28
19259;BME280;9763;48.780;9.212;2023-11-21T09:17:13;98015.84;;;13.80;85.80
19259;BME280;9763;48.780;9.212;2023-11-21T09:20:37;98021.50;;;14.05;86.59
19259;BME280;9763;48.780;9.212;2023-11-21T09:24:01;98016.03;;;14.18;85.62
19259;BME280;9763;48.780;9.212;2023-11-21T09:27:25;98020.72;;;14.15;85.13
19259;BME280;9763;48.780;9.212;2023-11-21T09:30:50;98018.09;;;14.15;85.27
19259;BME280;9763;48.780;9.212;2023-11-21T09:34:14;98021.03;;;14.21;84.74
19259;BME280;9763;48.780;9.212;2023-11-21T09:37:37;98023.78;;;14.20;84.18
19259;BME280;9763;48.780;9.212;2023-11-21T09:41:03;98024.09;;;14.26;84.91
19259;BME280;9763;48.780;9.212;2023-11-21T09:44:35;98024.81;;;14.38;84.72
19259;BME280;9763;48.780;9.212;2023-11-21T09:48:01;98026.69;;;14.47;84.48
19259;BME280;9763;48.780;9.212;2023-11-21T09:51:28;98025.91;;;14.56;85.19
19259;BME280;9763;48.780;9.212;2023-11-21T09:54:56;98024.81;;;14.59;84.28
19259;BME280;9763;48.780;9.212;2023-11-21T09:58:21;98031.53;;;14.52;83.75
19259;BME280;9763;48.780;9.212;2023-11-21T10:01:47;98028.88;;;14.42;83.74
19259;BME280;9763;48.780;9.212;2023-11-21T10:05:15;98042.13;;;14.40;83.85
19259;BME280;9763;48.780;9.212;2023-11-21T10:08:39;98049.50;;;14.47;83.57
19259;BME280;9763;48.780;9.212;2023-11-21T10:12:16;98040.22;;;14.43;83.21
19259;BME280;9763;48.780;9.212;2023-11-21T10:15:42;98039.13;;;14.45;84.14
19259;BME280;9763;48.780;9.212;2023-11-21T10:19:11;98037.47;;;14.44;83.34
19259;BME280;9763;48.780;9.212;2023-11-21T10:22:38;98050.13;;;14.39;82.71
19259;BME280;9763;48.780;9.212;2023-11-21T10:26:06;98047.16;;;14.23;82.43
19259;BME280;9763;48.780;9.212;2023-11-21T10:29:51;98049.03;;;14.11;83.01
19259;BME280;9763;48.780;9.212;2023-11-21T10:33:14;98054.78;;;14.05;82.80
19259;BME280;9763;48.780;9.212;2023-11-21T10:36:39;98065.69;;;14.00;82.58
19259;BME280;9763;48.780;9.212;2023-11-21T10:40:06;98053.63;;;13.88;82.06
19259;BME280;9763;48.780;9.212;2023-11-21T10:43:31;98059.06;;;13.76;81.59
19259;BME280;9763;48.780;9.212;2023-11-21T10:46:57;98072.19;;;13.64;82.11
19259;BME280;9763;48.780;9.212;2023-11-21T10:50:24;98059.84;;;13.55;82.33
19259;BME280;9763;48.780;9.212;2023-11-21T10:53:48;98057.50;;;13.52;82.69
19259;BME280;9763;48.780;9.212;2023-11-21T10:57:20;98066.66;;;13.58;83.61
19259;BME280;9763;48.780;9.212;2023-11-21T11:00:46;98066.47;;;13.70;82.79
19259;BME280;9763;48.780;9.212;2023-11-21T11:04:12;98064.47;;;13.84;83.33
19259;BME280;9763;48.780;9.212;2023-11-21T11:07:43;98057.97;;;13.99;82.58
19259;BME280;9763;48.780;9.212;2023-11-21T11:11:09;98057.47;;;14.15;82.58
19259;BME280;9763;48.780;9.212;2023-11-21T11:14:35;98057.28;;;14.37;82.39
19259;BME280;9763;48.780;9.212;2023-11-21T11:17:59;98056.59;;;14.65;82.99
19259;BME280;9763;48.780;9.212;2023-11-21T11:21:38;98047.84;;;14.95;83.11
19259;BME280;9763;48.780;9.212;2023-11-21T11:25:34;98054.19;;;15.22;82.60
19259;BME280;9763;48.780;9.212;2023-11-21T11:29:14;98053.81;;;15.36;82.63
19259;BME280;9763;48.780;9.212;2023-11-21T11:32:56;98052.81;;;15.46;81.31
19259;BME280;9763;48.780;9.212;2023-11-21T11:36:30;98055.06;;;15.51;81.04
19259;BME280;9763;48.780;9.212;2023-11-21T11:39:55;98055.50;;;15.56;80.61
19259;BME280;9763;48.780;9.212;2023-11-21T11:43:25;98058.41;;;15.63;80.80
19259;BME280;9763;48.780;9.212;2023-11-21T11:46:53;98056.72;;;15.62;80.41
19259;BME280;9763;48.780;9.212;2023-11-21T11:50:19;98065.19;;;15.56;79.71
19259;BME280;9763;48.780;9.212;2023-11-21T11:53:46;98069.75;;;15.44;79.89
19259;BME280;9763;48.780;9.212;2023-11-21T11:57:12;98057.97;;;15.29;79.30
19259;BME280;9763;48.780;9.212;2023-11-21T12:00:36;98064.31;;;15.17;79.79
19259;BME280;9763;48.780;9.212;2023-11-21T12:04:24;98060.41;;;15.11;80.04
19259;BME280;9763;48.780;9.212;2023-11-21T12:07:56;98062.47;;;14.98;79.56
19259;BME280;9763;48.780;9.212;2023-11-21T12:11:21;98069.00;;;14.94;79.83
19259;BME280;9763;48.780;9.212;2023-11-21T12:14:53;98049.03;;;14.72;80.36
19259;BME280;9763;48.780;9.212;2023-11-21T12:18:18;98082.75;;;14.76;79.84
19259;BME280;9763;48.780;9.212;2023-11-21T12:21:42;98079.97;;;14.68;80.07
19259;BME280;9763;48.780;9.212;2023-11-21T12:25:08;98078.69;;;14.63;80.49
19259;BME280;9763;48.780;9.212;2023-11-21T12:28:32;98079.00;;;14.60;80.94
19259;BME280;9763;48.780;9.212;2023-11-21T12:31:56;98069.16;;;14.62;81.63
19259;BME280;9763;48.780;9.212;2023-11-21T12:35:22;98067.53;;;14.61;81.56
19259;BME280;9763;48.780;9.212;2023-11-21T12:38:47;98080.81;;;14.69;80.77
19259;BME280;9763;48.780;9.212;2023-11-21T12:42:12;98078.06;;;14.70;81.36
19259;BME280;9763;48.780;9.212;2023-11-21T12:45:35;98085.97;;;14.80;80.55
19259;BME280;9763;48.780;9.212;2023-11-21T12:49:00;98091.25;;;14.90;80.61
19259;BME280;9763;48.780;9.212;2023-11-21T12:52:24;98095.53;;;15.00;80.17
19259;BME280;9763;48.780;9.212;2023-11-21T12:55:49;98087.97;;;15.07;80.20
19259;BME280;9763;48.780;9.212;2023-11-21T12:59:15;98092.09;;;15.09;79.98
19259;BME280;9763;48.780;9.212;2023-11-21T13:02:42;98090.72;;;15.05;79.48
19259;BME280;9763;48.780;9.212;2023-11-21T13:06:07;98089.88;;;14.95;79.87
19259;BME280;9763;48.780;9.212;2023-11-21T13:09:31;98086.66;;;14.82;79.03
19259;BME280;9763;48.780;9.212;2023-11-21T13:12:55;98092.16;;;14.69;79.10
19259;BME280;9763;48.780;9.212;2023-11-21T13:16:22;98099.34;;;14.67;79.96
19259;BME280;9763;48.780;9.212;2023-11-21T13:19:46;98099.19;;;14.69;80.10
19259;BME280;9763;48.780;9.212;2023-11-21T13:23:10;98103.47;;;14.60;80.13
19259;BME280;9763;48.780;9.212;2023-11-21T13:26:34;98108.50;;;14.43;79.92
19259;BME280;9763;48.780;9.212;2023-11-21T13:29:58;98109.31;;;14.22;80.56
19259;BME280;9763;48.780;9.212;2023-11-21T13:33:38;98122.25;;;13.93;79.57
19259;BME280;9763;48.780;9.212;2023-11-21T13:37:03;98129.09;;;13.64;79.98
19259;BME280;9763;48.780;9.212;2023-11-21T13:40:31;98133.13;;;13.36;80.19
19259;BME280;9763;48.780;9.212;2023-11-21T13:43:57;98129.69;;;13.13;81.22
19259;BME280;9763;48.780;9.212;2023-11-21T13:47:29;98147.22;;;13.02;82.05
19259;BME280;9763;48.780;9.212;2023-11-21T13:50:54;98150.44;;;12.94;82.45
19259;BME280;9763;48.780;9.212;2023-11-21T13:54:21;98138.56;;;12.90;82.60
19259;BME280;9763;48.780;9.212;2023-11-21T13:57:47;98149.13;;;12.88;83.06
19259;BME280;9763;48.780;9.212;2023-11-21T14:01:14;98157.13;;;12.87;82.54
19259;BME280;9763;48.780;9.212;2023-11-21T14:04:57;98160.91;;;12.83;83.29
19259;BME280;9763;48.780;9.212;2023-11-21T14:08:25;98171.41;;;12.83;83.90
19259;BME280;9763;48.780;9.212;2023-11-21T14:11:52;98167.81;;;12.84;83.63
19259;BME280;9763;48.780;9.212;2023-11-21T14:15:18;98172.81;;;12.87;83.86
19259;BME280;9763;48.780;9.212;2023-11-21T14:18:42;98173.78;;;12.86;84.19
19259;BME280;9763;48.780;9.212;2023-11-21T14:22:15;98181.19;;;12.92;84.52
19259;BME280;9763;48.780;9.212;2023-11-21T14:25:40;98182.69;;;12.94;84.37
19259;BME280;9763;48.780;9.212;2023-11-21T14:29:04;98189.59;;;12.95;84.63
19259;BME280;9763;48.780;9.212;2023-11-21T14:32:28;98187.81;;;12.96;83.89
19259;BME280;9763;48.780;9.212;2023-11-21T14:35:54;98150.81;;;12.78;84.44
19259;BME280;9763;48.780;9.212;2023-11-21T14:39:19;98189.13;;;13.02;84.25
19259;BME280;9763;48.780;9.212;2023-11-21T14:42:48;98190.81;;;13.03;84.40
19259;BME280;9763;48.780;9.212;2023-11-21T14:46:14;98189.59;;;13.07;84.37
19259;BME280;9763;48.780;9.212;2023-11-21T14:49:39;98201.41;;;13.12;84.17
19259;BME280;9763;48.780;9.212;2023-11-21T14:53:15;98210.69;;;13.16;84.35
19259;BME280;9763;48.780;9.212;2023-11-21T14:56:46;98215.59;;;13.21;84.00
19259;BME280;9763;48.780;9.212;2023-11-21T15:00:14;98214.50;;;13.23;83.78
19259;BME280;9763;48.780;9.212;2023-11-21T15:03:58;98215.22;;;13.25;83.80
19259;BME280;9763;48.780;9.212;2023-11-21T15:07:22;98217.97;;;13.24;84.03
19259;BME280;9763;48.780;9.212;2023-11-21T15:10:49;98225.13;;;13.22;83.51
19259;BME280;9763;48.780;9.212;2023-11-21T15:14:16;98227.84;;;13.20;83.88
19259;BME280;9763;48.780;9.212;2023-11-21T15:17:47;98213.78;;;13.10;83.16
19259;BME280;9763;48.780;9.212;2023-11-21T15:21:11;98238.34;;;13.20;83.51
19259;BME280;9763;48.780;9.212;2023-11-21T15:24:34;98247.16;;;13.19;83.00
19259;BME280;9763;48.780;9.212;2023-11-21T15:27:58;98259.41;;;13.19;83.71
19259;BME280;9763;48.780;9.212;2023-11-21T15:31:22;98259.31;;;13.20;83.12
19259;BME280;9763;48.780;9.212;2023-11-21T15:34:48;98257.75;;;13.18;82.81
19259;BME280;9763;48.780;9.212;2023-11-21T15:38:12;98256.22;;;13.15;82.38
19259;BME280;9763;48.780;9.212;2023-11-21T15:41:37;98267.53;;;13.16;82.87
19259;BME280;9763;48.780;9.212;2023-11-21T15:45:01;98272.63;;;13.17;83.04
19259;BME280;9763;48.780;9.212;2023-11-21T15:48:25;98272.41;;;13.20;82.68
19259;BME280;9763;48.780;9.212;2023-11-21T15:51:50;98277.75;;;13.19;82.40
19259;BME280;9763;48.780;9.212;2023-11-21T15:55:17;98276.34;;;13.15;82.21
19259;BME280;9763;48.780;9.212;2023-11-21T15:58:41;98274.38;;;13.06;81.46
19259;BME280;9763;48.780;9.212;2023-11-21T16:02:06;98286.53;;;12.95;81.69
19259;BME280;9763;48.780;9.212;2023-11-21T16:05:30;98287.00;;;12.89;82.17
19259;BME280;9763;48.780;9.212;2023-11-21T16:08:55;98293.22;;;12.88;81.93
19259;BME280;9763;48.780;9.212;2023-11-21T16:12:20;98301.78;;;12.90;82.17
19259;BME280;9763;48.780;9.212;2023-11-21T16:15:46;98305.25;;;12.91;82.38
19259;BME280;9763;48.780;9.212;2023-11-21T16:19:13;98303.47;;;12.91;82.08
19259;BME280;9763;48.780;9.212;2023-11-21T16:22:37;98310.47;;;12.91;81.78
19259;BME280;9763;48.780;9.212;2023-11-21T16:26:03;98313.94;;;12.91;81.78
19259;BME280;9763;48.780;9.212;2023-11-21T16:29:27;98312.00;;;12.93;82.21
19259;BME280;9763;48.780;9.212;2023-11-21T16:32:53;98319.19;;;12.91;81.59
19259;BME280;9763;48.780;9.212;2023-11-21T16:36:16;98326.31;;;12.89;81.86
19259;BME280;9763;48.780;9.212;2023-11-21T16:39:40;98326.66;;;12.85;81.73
19259;BME280;9763;48.780;9.212;2023-11-21T16:43:08;98339.13;;;12.81;81.48
19259;BME280;9763;48.780;9.212;2023-11-21T16:46:31;98335.94;;;12.78;81.43
19259;BME280;9763;48.780;9.212;2023-11-21T16:49:55;98341.16;;;12.78;81.68
19259;BME280;9763;48.780;9.212;2023-11-21T16:53:21;98347.78;;;12.71;81.14
19259;BME280;9763;48.780;9.212;2023-11-21T16:56:44;98351.22;;;12.60;81.23
19259;BME280;9763;48.780;9.212;2023-11-21T17:00:11;98357.25;;;12.49;80.84
19259;BME280;9763;48.780;9.212;2023-11-21T17:03:35;98362.53;;;12.37;79.98
19259;BME280;9763;48.780;9.212;2023-11-21T17:06:59;98368.88;;;12.21;79.93
19259;BME280;9763;48.780;9.212;2023-11-21T17:10:23;98371.78;;;12.06;79.68
19259;BME280;9763;48.780;9.212;2023-11-21T17:13:47;98379.78;;;11.92;79.96
19259;BME280;9763;48.780;9.212;2023-11-21T17:17:12;98378.97;;;11.78;80.68
19259;BME280;9763;48.780;9.212;2023-11-21T17:20:36;98377.91;;;11.68;80.42
19259;BME280;9763;48.780;9.212;2023-11-21T17:24:00;98385.84;;;11.67;81.64
19259;BME280;9763;48.780;9.212;2023-11-21T17:27:24;98389.22;;;11.69;81.25
19259;BME280;9763;48.780;9.212;2023-11-21T17:30:48;98383.16;;;11.68;81.51
19259;BME280;9763;48.780;9.212;2023-11-21T17:34:13;98388.38;;;11.68;81.54
19259;BME280;9763;48.780;9.212;2023-11-21T17:37:41;98394.34;;;11.70;81.58
19259;BME280;9763;48.780;9.212;2023-11-21T17:41:05;98378.56;;;11.59;82.25
19259;BME280;9763;48.780;9.212;2023-11-21T17:44:29;98398.22;;;11.77;82.52
19259;BME280;9763;48.780;9.212;2023-11-21T17:47:52;98408.56;;;11.79;82.45
19259;BME280;9763;48.780;9.212;2023-11-21T17:51:17;98403.22;;;11.80;82.60
19259;BME280;9763;48.780;9.212;2023-11-21T17:54:41;98410.84;;;11.83;81.95
19259;BME280;9763;48.780;9.212;2023-11-21T17:58:05;98428.00;;;11.87;82.69
19259;BME280;9763;48.780;9.212;2023-11-21T18:01:29;98429.56;;;11.90;82.27
19259;BME280;9763;48.780;9.212;2023-11-21T18:04:59;98434.59;;;11.93;82.73
19259;BME280;9763;48.780;9.212;2023-11-21T18:08:25;98428.41;;;11.94;82.69
19259;BME280;9763;48.780;9.212;2023-11-21T18:11:49;98447.22;;;11.99;83.02
19259;BME280;9763;48.780;9.212;2023-11-21T18:15:13;98420.88;;;11.89;82.52
19259;BME280;9763;48.780;9.212;2023-11-21T18:18:37;98450.97;;;12.08;82.22
19259;BME280;9763;48.780;9.212;2023-11-21T18:22:02;98446.56;;;12.08;82.27